Flight Track Log - Related Links

Times and Time Zones

All times are in EDT time to prevent confusion due to time zone crossing. See the CMP205 flight status page for this flight to view local times or setup timezone preferences in your user account.

Time Position Orientation Groundspeed Altitude Reporting Facility
EDT Latitude Longitude Course Direction KTS MPH feet Rate Location/Type
Fri 04:59:24 PM 9.0770 -79.3850 30° Northeast 90 104  Level FlightAware ADS-B
Fri 04:59:54 PM 9.0950 -79.3740 31° Northeast 188 216 500 1,800 Climbing FlightAware ADS-B
Fri 05:00:24 PM 9.1110 -79.3550 50° Northeast 182 209 1,800 2,400 Climbing FlightAware ADS-B
Fri 05:00:54 PM 9.1130 -79.3280 86° East 190 219 2,900 2,182 Climbing FlightAware ADS-B
Fri 05:01:19 PM 9.1070 -79.3080 107° East 193 222 3,800 1,571 Climbing FlightAware ADS-B
Fri 05:01:36 PM 9.0950 -79.2970 138° Southeast 225 259 4,000 1,050 Climbing FlightAware ADS-B
Fri 05:01:59 PM 9.0740 -79.2780 138° Southeast 260 299 4,500 1,811 Climbing FlightAware ADS-B
Fri 05:02:29 PM 9.0460 -79.2510 136° Southeast 272 313 5,600 2,400 Climbing FlightAware ADS-B
Fri 05:02:39 PM 9.0360 -79.2420 138° Southeast 281 323 6,100 2,700 Climbing FlightAware ADS-B
Fri 05:03:09 PM 9.0070 -79.2160 138° Southeast 285 328 7,400 2,640 Climbing FlightAware ADS-B
Fri 05:03:29 PM 8.9870 -79.1970 137° Southeast 289 333 8,300 2,640 Climbing FlightAware ADS-B
Fri 05:03:34 PM 8.9820 -79.1930 142° Southeast 290 334 8,500 2,520 Climbing FlightAware ADS-B
Fri 05:04:19 PM 8.9360 -79.1510 138° Southeast 292 336 10,400 1,465 Climbing FlightAware ADS-B
Fri 05:05:00 PM 8.9030 -79.1200 137° Southeast 293 337 10,600 1,545 Climbing FlightAware ADS-B
Fri 05:06:00 PM 8.8220 -79.0470 138° Southeast 358 412 13,000 1,846 Climbing FlightAware ADS-B
Fri 05:06:44 PM 8.7680 -78.9950 136° Southeast 358 412 13,800 1,448 Climbing FlightAware ADS-B
Fri 05:07:56 PM 8.6800 -78.9160 138° Southeast 372 428 15,800 1,132 Climbing FlightAware ADS-B
Fri 05:08:30 PM 8.6430 -78.8810 137° Southeast 372 428 15,800  Level FlightAware ADS-B
Fri 05:09:19 PM 8.5910 -78.8320 137° Southeast 372 428 15,800  Level FlightAware ADS-B
Fri 05:09:58 PM 8.5490 -78.7920 137° Southeast 372 428 15,800  Level FlightAware ADS-B
Fri 05:10:57 PM 8.4860 -78.7330 137° Southeast 372 428 15,800 462 Level FlightAware ADS-B
Fri 05:13:00 PM 8.3490 -78.5591 129° Southeast  Level Estimated
Fri 05:14:00 PM 8.2822 -78.4743 129° Southeast  Level Estimated
Fri 05:15:00 PM 8.2153 -78.3896 129° Southeast  Level Estimated
Fri 05:16:00 PM 8.1484 -78.3048 129° Southeast  Level Estimated
Fri 05:17:00 PM 8.0815 -78.2201 129° Southeast  Level Estimated
Fri 05:18:00 PM 8.0146 -78.1355 129° Southeast  Level Estimated
Fri 05:19:00 PM 7.9477 -78.0508 129° Southeast  Level Estimated
Fri 05:20:00 PM 7.8808 -77.9662 129° Southeast  Level Estimated
Fri 05:21:00 PM 7.8138 -77.8816 129° Southeast  Level Estimated
Fri 05:22:00 PM 7.7468 -77.7971 129° Southeast  Level Estimated
Fri 05:23:00 PM 7.6798 -77.7125 129° Southeast  Level Estimated
Fri 05:24:00 PM 7.6128 -77.6280 129° Southeast  Level Estimated
Fri 05:25:00 PM 7.5458 -77.5435 129° Southeast  Level Estimated
Fri 05:26:00 PM 7.4787 -77.4591 129° Southeast  Level Estimated
Fri 05:27:00 PM 7.4117 -77.3747 129° Southeast  Level Estimated
Fri 05:28:00 PM 7.3446 -77.2903 129° Southeast  Level Estimated
Fri 05:29:00 PM 7.2775 -77.2059 129° Southeast  Level Estimated
Fri 05:30:00 PM 7.2104 -77.1215 129° Southeast  Level Estimated
Fri 05:31:00 PM 7.1432 -77.0372 129° Southeast  Level Estimated
Fri 05:32:00 PM 7.0761 -76.9529 129° Southeast  Level Estimated
Fri 05:33:00 PM 7.0089 -76.8686 129° Southeast  Level Estimated
Fri 05:34:00 PM 6.9418 -76.7844 129° Southeast  Level Estimated
Fri 05:35:00 PM 6.8746 -76.7001 129° Southeast  Level Estimated
Fri 05:36:00 PM 6.8074 -76.6159 129° Southeast  Level Estimated
Fri 05:37:00 PM 6.7401 -76.5318 129° Southeast  Level Estimated
Fri 05:38:00 PM 6.6729 -76.4476 129° Southeast  Level Estimated
Fri 05:39:00 PM 6.6057 -76.3634 129° Southeast  Level Estimated
Fri 05:40:00 PM 6.5384 -76.2793 129° Southeast  Level Estimated
Fri 05:41:00 PM 6.4711 -76.1953 129° Southeast  Level Estimated
Fri 05:42:00 PM 6.4039 -76.1112 129° Southeast  Level Estimated
Fri 05:43:00 PM 6.3366 -76.0271 129° Southeast  Level Estimated
Fri 05:44:00 PM 6.2692 -75.9431 129° Southeast  Level Estimated
Fri 05:45:00 PM 6.2019 -75.8591 129° Southeast  Level Estimated
Fri 05:46:00 PM 6.1346 -75.7751 129° Southeast  Level Estimated
Fri 05:47:00 PM 6.0672 -75.6912 129° Southeast  Level Estimated
Fri 05:48:00 PM 5.9998 -75.6072 129° Southeast  Level Estimated
Fri 05:49:00 PM 5.9325 -75.5233 129° Southeast  Level Estimated
Fri 05:50:00 PM 5.8651 -75.4394 129° Southeast  Level Estimated
Fri 05:51:00 PM 5.7977 -75.3555 129° Southeast  Level Estimated
Fri 05:51:32 PM 5.6210 -74.8660 129° Southeast 432 497 35,000  Level FlightAware ADS-B
Fri 05:52:00 PM 5.7302 -75.2717 129° Southeast  Level Estimated
Fri 05:52:12 PM 5.5590 -74.8110 139° Southeast 432 497 35,000  Level FlightAware ADS-B
Fri 05:52:56 PM 5.4940 -74.7520 138° Southeast 434 499 35,000  Level FlightAware ADS-B
Fri 05:53:38 PM 5.4310 -74.6960 138° Southeast 433 498 35,000  Level FlightAware ADS-B
Fri 05:54:16 PM 5.3740 -74.6450 138° Southeast 432 497 35,000  Level FlightAware ADS-B
Fri 05:55:02 PM 5.3050 -74.5830 138° Southeast 434 499 35,000  Level FlightAware ADS-B
Fri 05:55:46 PM 5.2390 -74.5220 137° Southeast 439 505 35,000  Level FlightAware ADS-B
Fri 05:56:26 PM 5.1790 -74.4670 138° Southeast 438 504 35,000  Level FlightAware ADS-B
Fri 05:57:08 PM 5.1180 -74.4080 136° Southeast 440 506 35,000  Level FlightAware ADS-B
Fri 05:57:52 PM 5.0570 -74.3410 132° Southeast 438 504 35,000  Level FlightAware ADS-B
Fri 05:58:32 PM 5.0030 -74.2820 133° Southeast 440 506 35,000  Level FlightAware ADS-B
Fri 05:59:16 PM 4.9410 -74.2150 133° Southeast 442 509 35,000  Level FlightAware ADS-B
Fri 05:59:56 PM 4.8860 -74.1560 133° Southeast 443 510 35,000  Level FlightAware ADS-B
Fri 06:00:50 PM 4.8100 -74.0730 133° Southeast 446 513 35,000  Level FlightAware ADS-B
Fri 06:01:32 PM 4.7500 -74.0090 133° Southeast 448 516 35,000  Level FlightAware ADS-B
Fri 06:02:14 PM 4.7100 -73.9660 133° Southeast 449 517 35,000  Level FlightAware ADS-B
Fri 06:03:00 PM 4.6260 -73.8750 133° Southeast 446 513 35,000  Level FlightAware ADS-B
Fri 06:03:38 PM 4.5720 -73.8170 133° Southeast 447 514 35,000  Level FlightAware ADS-B
Fri 06:04:22 PM 4.5110 -73.7510 133° Southeast 447 514 35,000  Level FlightAware ADS-B
Fri 06:05:06 PM 4.4480 -73.6830 133° Southeast 447 514 35,000  Level FlightAware ADS-B
Fri 06:05:44 PM 4.3960 -73.6260 132° Southeast 445 512 35,000  Level FlightAware ADS-B
Fri 06:06:30 PM 4.3320 -73.5570 133° Southeast 443 510 35,000  Level FlightAware ADS-B
Fri 06:07:12 PM 4.2750 -73.4960 133° Southeast 442 509 35,000  Level FlightAware ADS-B
Fri 06:07:52 PM 4.2160 -73.4320 133° Southeast 442 509 35,000  Level FlightAware ADS-B
Fri 06:08:34 PM 4.1590 -73.3700 133° Southeast 444 511 35,000  Level FlightAware ADS-B
Fri 06:09:14 PM 4.1020 -73.3090 133° Southeast 445 512 35,000  Level FlightAware ADS-B
Fri 06:09:59 PM 4.0400 -73.2420 133° Southeast 445 512 35,000  Level FlightAware ADS-B
Fri 06:10:36 PM 3.9900 -73.1880 133° Southeast 445 512 35,000  Level FlightAware ADS-B
Fri 06:11:31 PM 3.9250 -73.1160 132° Southeast 445 512 35,000  Level FlightAware ADS-B
Fri 06:12:08 PM 3.8820 -73.0680 132° Southeast 445 512 35,000  Level FlightAware ADS-B
Fri 06:12:56 PM 3.8260 -73.0050 132° Southeast 445 512 35,000  Level FlightAware ADS-B
Fri 06:13:32 PM 3.7840 -72.9580 132° Southeast 445 512 35,000  Level FlightAware ADS-B
Fri 06:14:23 PM 3.7240 -72.8920 132° Southeast 445 512 35,000  Level FlightAware ADS-B
Fri 06:15:01 PM 3.6790 -72.8420 132° Southeast 445 512 35,000  Level FlightAware ADS-B
Fri 06:16:03 PM 3.6070 -72.7620 132° Southeast 445 512 35,000  Level FlightAware ADS-B
Fri 06:16:38 PM 3.5660 -72.7160 132° Southeast 445 512 35,000  Level FlightAware ADS-B
Fri 06:17:16 PM 3.5210 -72.6670 133° Southeast 445 512 35,000  Level FlightAware ADS-B
Fri 06:18:05 PM 3.4640 -72.6030 132° Southeast 445 512 35,000  Level FlightAware ADS-B
Fri 06:18:40 PM 3.4230 -72.5570 132° Southeast 445 512 35,000  Level FlightAware ADS-B
Fri 06:19:29 PM 3.3660 -72.4930 132° Southeast 445 512 35,000  Level FlightAware ADS-B
Fri 06:20:08 PM 3.3200 -72.4420 132° Southeast 445 512 35,000 Level FlightAware ADS-B
Fri 06:22:00 PM 3.1939 -72.2862 129° Southeast  Level Estimated
Fri 06:23:00 PM 3.1264 -72.2027 129° Southeast  Level Estimated
Fri 06:24:00 PM 3.0589 -72.1193 129° Southeast  Level Estimated
Fri 06:25:00 PM 2.9913 -72.0358 129° Southeast  Level Estimated
Fri 06:26:00 PM 2.9237 -71.9524 129° Southeast  Level Estimated
Fri 06:27:00 PM 2.8562 -71.8690 129° Southeast  Level Estimated
Fri 06:28:00 PM 2.7886 -71.7856 129° Southeast  Level Estimated
Fri 06:29:00 PM 2.7210 -71.7022 129° Southeast  Level Estimated
Fri 06:30:00 PM 2.6534 -71.6188 129° Southeast  Level Estimated
Fri 06:31:00 PM 2.5858 -71.5354 129° Southeast  Level Estimated
Fri 06:32:00 PM 2.5182 -71.4520 129° Southeast  Level Estimated
Fri 06:33:00 PM 2.4506 -71.3687 129° Southeast  Level Estimated
Fri 06:34:00 PM 2.3830 -71.2853 129° Southeast  Level Estimated
Fri 06:35:00 PM 2.3154 -71.2020 129° Southeast  Level Estimated
Fri 06:36:00 PM 2.2478 -71.1186 129° Southeast  Level Estimated
Fri 06:37:00 PM 2.1802 -71.0353 129° Southeast  Level Estimated
Fri 06:38:00 PM 2.1125 -70.9520 129° Southeast  Level Estimated
Fri 06:39:00 PM 2.0449 -70.8687 129° Southeast  Level Estimated
Fri 06:40:00 PM 1.9773 -70.7854 129° Southeast  Level Estimated
Fri 06:41:00 PM 1.9096 -70.7021 129° Southeast  Level Estimated
Fri 06:42:00 PM 1.8420 -70.6188 129° Southeast  Level Estimated
Fri 06:43:00 PM 1.7743 -70.5355 129° Southeast  Level Estimated
Fri 06:44:00 PM 1.7067 -70.4522 129° Southeast  Level Estimated
Fri 06:45:00 PM 1.6390 -70.3689 129° Southeast  Level Estimated
Fri 06:46:00 PM 1.5714 -70.2857 129° Southeast  Level Estimated
Fri 06:47:00 PM 1.5037 -70.2024 129° Southeast  Level Estimated
Fri 06:48:00 PM 1.4361 -70.1191 129° Southeast  Level Estimated
Fri 06:49:00 PM 1.3684 -70.0359 129° Southeast  Level Estimated
Fri 06:50:00 PM 1.3007 -69.9526 129° Southeast  Level Estimated
Fri 06:51:00 PM 1.2330 -69.8694 129° Southeast  Level Estimated
Fri 06:52:00 PM 1.1654 -69.7861 129° Southeast  Level Estimated
Fri 06:53:00 PM 1.0977 -69.7029 129° Southeast  Level Estimated
Fri 06:54:00 PM 1.0300 -69.6197 129° Southeast  Level Estimated
Fri 06:55:00 PM 0.9623 -69.5364 129° Southeast  Level Estimated
Fri 06:56:00 PM 0.8946 -69.4532 129° Southeast  Level Estimated
Fri 06:57:00 PM 0.8270 -69.3700 129° Southeast  Level Estimated
Fri 06:58:00 PM 0.7593 -69.2868 129° Southeast  Level Estimated
Fri 06:59:00 PM 0.6916 -69.2035 129° Southeast  Level Estimated
Fri 07:00:00 PM 0.6239 -69.1203 129° Southeast  Level Estimated
Fri 07:01:00 PM 0.5562 -69.0371 129° Southeast  Level Estimated
Fri 07:02:00 PM 0.4885 -68.9539 129° Southeast  Level Estimated
Fri 07:03:00 PM 0.4208 -68.8707 129° Southeast  Level Estimated
Fri 07:04:00 PM 0.3531 -68.7875 129° Southeast  Level Estimated
Fri 07:05:00 PM 0.2854 -68.7043 129° Southeast  Level Estimated
Fri 07:06:00 PM 0.2177 -68.6211 129° Southeast  Level Estimated
Fri 07:07:00 PM 0.1500 -68.5378 129° Southeast  Level Estimated
Fri 07:08:00 PM 0.0823 -68.4546 129° Southeast  Level Estimated
Fri 07:09:00 PM 0.0146 -68.3714 129° Southeast  Level Estimated
Fri 07:10:00 PM -0.0531 -68.2882 129° Southeast  Level Estimated
Fri 07:11:00 PM -0.1208 -68.2050 129° Southeast  Level Estimated
Fri 07:12:00 PM -0.1885 -68.1218 129° Southeast  Level Estimated
Fri 07:13:00 PM -0.2562 -68.0386 129° Southeast  Level Estimated
Fri 07:14:00 PM -0.3239 -67.9554 129° Southeast  Level Estimated
Fri 07:15:00 PM -0.3916 -67.8722 129° Southeast  Level Estimated
Fri 07:16:00 PM -0.4593 -67.7890 129° Southeast  Level Estimated
Fri 07:17:00 PM -0.5270 -67.7057 129° Southeast  Level Estimated
Fri 07:18:00 PM -0.5947 -67.6225 129° Southeast  Level Estimated
Fri 07:19:00 PM -0.6623 -67.5393 129° Southeast  Level Estimated
Fri 07:20:00 PM -0.7300 -67.4561 129° Southeast  Level Estimated
Fri 07:21:00 PM -0.7977 -67.3729 129° Southeast  Level Estimated
Fri 07:22:00 PM -0.8654 -67.2897 129° Southeast  Level Estimated
Fri 07:23:00 PM -0.9331 -67.2064 129° Southeast  Level Estimated
Fri 07:24:00 PM -1.0008 -67.1232 129° Southeast  Level Estimated
Fri 07:25:00 PM -1.0685 -67.0400 129° Southeast  Level Estimated
Fri 07:26:00 PM -1.1362 -66.9567 129° Southeast  Level Estimated
Fri 07:27:00 PM -1.2038 -66.8735 129° Southeast  Level Estimated
Fri 07:28:00 PM -1.2715 -66.7903 129° Southeast  Level Estimated
Fri 07:29:00 PM -1.3392 -66.7070 129° Southeast  Level Estimated
Fri 07:30:00 PM -1.4068 -66.6237 129° Southeast  Level Estimated
Fri 07:31:00 PM -1.4745 -66.5405 129° Southeast  Level Estimated
Fri 07:32:00 PM -1.5422 -66.4572 129° Southeast  Level Estimated
Fri 07:33:00 PM -1.6098 -66.3740 129° Southeast  Level Estimated
Fri 07:34:00 PM -1.6775 -66.2907 129° Southeast  Level Estimated
Fri 07:35:00 PM -1.7451 -66.2074 129° Southeast  Level Estimated
Fri 07:36:00 PM -1.8128 -66.1241 129° Southeast  Level Estimated
Fri 07:37:00 PM -1.8804 -66.0408 129° Southeast  Level Estimated
Fri 07:38:00 PM -1.9481 -65.9575 129° Southeast  Level Estimated
Fri 07:39:00 PM -2.0157 -65.8742 129° Southeast  Level Estimated
Fri 07:40:00 PM -2.0833 -65.7909 129° Southeast  Level Estimated
Fri 07:41:00 PM -2.1510 -65.7076 129° Southeast  Level Estimated
Fri 07:42:00 PM -2.2186 -65.6243 129° Southeast  Level Estimated
Fri 07:43:00 PM -2.2862 -65.5409 129° Southeast  Level Estimated
Fri 07:44:00 PM -2.3538 -65.4576 129° Southeast  Level Estimated
Fri 07:45:00 PM -2.4214 -65.3743 129° Southeast  Level Estimated
Fri 07:46:00 PM -2.4890 -65.2909 129° Southeast  Level Estimated
Fri 07:47:00 PM -2.5566 -65.2075 129° Southeast  Level Estimated
Fri 07:48:00 PM -2.6242 -65.1241 129° Southeast  Level Estimated
Fri 07:49:00 PM -2.6918 -65.0408 129° Southeast  Level Estimated
Fri 07:50:00 PM -2.7594 -64.9574 129° Southeast  Level Estimated
Fri 07:51:00 PM -2.8270 -64.8740 129° Southeast  Level Estimated
Fri 07:52:00 PM -2.8946 -64.7906 129° Southeast  Level Estimated
Fri 07:53:00 PM -2.9621 -64.7071 129° Southeast  Level Estimated
Fri 07:54:00 PM -3.0297 -64.6237 129° Southeast  Level Estimated
Fri 07:55:00 PM -3.0972 -64.5403 129° Southeast  Level Estimated
Fri 07:56:00 PM -3.1648 -64.4568 129° Southeast  Level Estimated
Fri 07:57:00 PM -3.2323 -64.3734 129° Southeast  Level Estimated
Fri 07:58:00 PM -3.2998 -64.2899 129° Southeast  Level Estimated
Fri 07:59:00 PM -3.3674 -64.2064 129° Southeast  Level Estimated
Fri 08:00:00 PM -3.4349 -64.1229 129° Southeast  Level Estimated
Fri 08:01:00 PM -3.5024 -64.0394 129° Southeast  Level Estimated
Fri 08:02:00 PM -3.5699 -63.9559 129° Southeast  Level Estimated
Fri 08:03:00 PM -3.6374 -63.8723 129° Southeast  Level Estimated
Fri 08:04:00 PM -3.7049 -63.7888 129° Southeast  Level Estimated
Fri 08:05:00 PM -3.7724 -63.7052 129° Southeast  Level Estimated
Fri 08:06:00 PM -3.8398 -63.6216 129° Southeast  Level Estimated
Fri 08:07:00 PM -3.9073 -63.5381 129° Southeast  Level Estimated
Fri 08:08:00 PM -3.9747 -63.4544 129° Southeast  Level Estimated
Fri 08:09:00 PM -4.0422 -63.3708 129° Southeast  Level Estimated
Fri 08:10:00 PM -4.1096 -63.2872 129° Southeast  Level Estimated
Fri 08:11:00 PM -4.1771 -63.2036 129° Southeast  Level Estimated
Fri 08:12:00 PM -4.2445 -63.1199 129° Southeast  Level Estimated
Fri 08:13:00 PM -4.3119 -63.0362 129° Southeast  Level Estimated
Fri 08:14:00 PM -4.3793 -62.9525 129° Southeast  Level Estimated
Fri 08:15:00 PM -4.4467 -62.8689 129° Southeast  Level Estimated
Fri 08:16:00 PM -4.5141 -62.7851 129° Southeast  Level Estimated
Fri 08:17:00 PM -4.5814 -62.7014 129° Southeast  Level Estimated
Fri 08:18:00 PM -4.6488 -62.6176 129° Southeast  Level Estimated
Fri 08:19:00 PM -4.7161 -62.5339 129° Southeast  Level Estimated
Fri 08:20:00 PM -4.7835 -62.4501 129° Southeast  Level Estimated
Fri 08:21:00 PM -4.8508 -62.3663 129° Southeast  Level Estimated
Fri 08:22:00 PM -4.9181 -62.2825 129° Southeast  Level Estimated
Fri 08:23:00 PM -4.9854 -62.1987 129° Southeast  Level Estimated
Fri 08:24:00 PM -5.0527 -62.1148 129° Southeast  Level Estimated
Fri 08:25:00 PM -5.1200 -62.0310 129° Southeast  Level Estimated
Fri 08:26:00 PM -5.1873 -61.9471 129° Southeast  Level Estimated
Fri 08:27:00 PM -5.2546 -61.8632 129° Southeast  Level Estimated
Fri 08:28:00 PM -5.3218 -61.7793 129° Southeast  Level Estimated
Fri 08:29:00 PM -5.3891 -61.6953 129° Southeast  Level Estimated
Fri 08:30:00 PM -5.4563 -61.6114 129° Southeast  Level Estimated
Fri 08:31:00 PM -5.5236 -61.5274 129° Southeast  Level Estimated
Fri 08:32:00 PM -5.5908 -61.4434 129° Southeast  Level Estimated
Fri 08:33:00 PM -5.6580 -61.3594 129° Southeast  Level Estimated
Fri 08:34:00 PM -5.7252 -61.2754 129° Southeast  Level Estimated
Fri 08:35:00 PM -5.7923 -61.1913 129° Southeast  Level Estimated
Fri 08:36:00 PM -5.8595 -61.1073 129° Southeast  Level Estimated
Fri 08:37:00 PM -5.9266 -61.0232 129° Southeast  Level Estimated
Fri 08:38:00 PM -5.9938 -60.9390 129° Southeast  Level Estimated
Fri 08:39:00 PM -6.0609 -60.8549 129° Southeast  Level Estimated
Fri 08:40:00 PM -6.1280 -60.7708 129° Southeast  Level Estimated
Fri 08:41:00 PM -6.1951 -60.6866 129° Southeast  Level Estimated
Fri 08:42:00 PM -6.2622 -60.6024 129° Southeast  Level Estimated
Fri 08:43:00 PM -6.3293 -60.5182 129° Southeast  Level Estimated
Fri 08:44:00 PM -6.3963 -60.4339 129° Southeast  Level Estimated
Fri 08:45:00 PM -6.4634 -60.3497 129° Southeast  Level Estimated
Fri 08:46:00 PM -6.5304 -60.2654 129° Southeast  Level Estimated
Fri 08:47:00 PM -6.5974 -60.1811 129° Southeast  Level Estimated
Fri 08:48:00 PM -6.6644 -60.0968 129° Southeast  Level Estimated
Fri 08:49:00 PM -6.7314 -60.0124 129° Southeast  Level Estimated
Fri 08:50:00 PM -6.7984 -59.9280 129° Southeast  Level Estimated
Fri 08:51:00 PM -6.8654 -59.8436 129° Southeast  Level Estimated
Fri 08:52:00 PM -6.9323 -59.7592 129° Southeast  Level Estimated
Fri 08:53:00 PM -6.9992 -59.6748 129° Southeast  Level Estimated
Fri 08:54:00 PM -7.0662 -59.5903 129° Southeast  Level Estimated
Fri 08:55:00 PM -7.1331 -59.5058 129° Southeast  Level Estimated
Fri 08:56:00 PM -7.1999 -59.4213 129° Southeast  Level Estimated
Fri 08:57:00 PM -7.2668 -59.3367 129° Southeast  Level Estimated
Fri 08:58:00 PM -7.3337 -59.2522 129° Southeast  Level Estimated
Fri 08:59:00 PM -7.4005 -59.1675 129° Southeast  Level Estimated
Fri 09:00:00 PM -7.4673 -59.0829 129° Southeast  Level Estimated
Fri 09:01:00 PM -7.5341 -58.9983 129° Southeast  Level Estimated
Fri 09:02:00 PM -7.6009 -58.9136 129° Southeast  Level Estimated
Fri 09:03:00 PM -7.6677 -58.8289 129° Southeast  Level Estimated
Fri 09:04:00 PM -7.7344 -58.7442 128° Southeast  Level Estimated
Fri 09:05:00 PM -7.8012 -58.6594 128° Southeast  Level Estimated
Fri 09:06:00 PM -7.8679 -58.5746 128° Southeast  Level Estimated
Fri 09:07:00 PM -7.9346 -58.4898 128° Southeast  Level Estimated
Fri 09:08:00 PM -8.0013 -58.4050 128° Southeast  Level Estimated
Fri 09:09:00 PM -8.0680 -58.3201 128° Southeast  Level Estimated
Fri 09:10:00 PM -8.1346 -58.2352 128° Southeast  Level Estimated
Fri 09:11:00 PM -8.2013 -58.1503 128° Southeast  Level Estimated
Fri 09:12:00 PM -8.2679 -58.0654 128° Southeast  Level Estimated
Fri 09:13:00 PM -8.3345 -57.9804 128° Southeast  Level Estimated
Fri 09:14:00 PM -8.4011 -57.8954 128° Southeast  Level Estimated
Fri 09:15:00 PM -8.4676 -57.8104 128° Southeast  Level Estimated
Fri 09:16:00 PM -8.5342 -57.7253 128° Southeast  Level Estimated
Fri 09:17:00 PM -8.6007 -57.6402 128° Southeast  Level Estimated
Fri 09:18:00 PM -8.6672 -57.5551 128° Southeast  Level Estimated
Fri 09:19:00 PM -8.7337 -57.4699 128° Southeast  Level Estimated
Fri 09:20:00 PM -8.8002 -57.3848 128° Southeast  Level Estimated
Fri 09:21:00 PM -8.8666 -57.2995 128° Southeast  Level Estimated
Fri 09:22:00 PM -8.9331 -57.2143 128° Southeast  Level Estimated
Fri 09:23:00 PM -8.9995 -57.1290 128° Southeast  Level Estimated
Fri 09:24:00 PM -9.0659 -57.0437 128° Southeast  Level Estimated
Fri 09:25:00 PM -9.1322 -56.9584 128° Southeast  Level Estimated
Fri 09:26:00 PM -9.1986 -56.8730 128° Southeast  Level Estimated
Fri 09:27:00 PM -9.2649 -56.7876 128° Southeast  Level Estimated
Fri 09:28:00 PM -9.3312 -56.7022 128° Southeast  Level Estimated
Fri 09:29:00 PM -9.3975 -56.6167 128° Southeast  Level Estimated
Fri 09:30:00 PM -9.4638 -56.5312 128° Southeast  Level Estimated
Fri 09:31:00 PM -9.5300 -56.4457 128° Southeast  Level Estimated
Fri 09:32:00 PM -9.5963 -56.3601 128° Southeast  Level Estimated
Fri 09:33:00 PM -9.6625 -56.2745 128° Southeast  Level Estimated
Fri 09:34:00 PM -9.7287 -56.1889 128° Southeast  Level Estimated
Fri 09:35:00 PM -9.7948 -56.1032 128° Southeast  Level Estimated
Fri 09:36:00 PM -9.8610 -56.0175 128° Southeast  Level Estimated
Fri 09:37:00 PM -9.9271 -55.9318 128° Southeast  Level Estimated
Fri 09:38:00 PM -9.9932 -55.8460 128° Southeast  Level Estimated
Fri 09:39:00 PM -10.0593 -55.7602 128° Southeast  Level Estimated
Fri 09:40:00 PM -10.1253 -55.6743 128° Southeast  Level Estimated
Fri 09:41:00 PM -10.1914 -55.5885 128° Southeast  Level Estimated
Fri 09:42:00 PM -10.2574 -55.5025 128° Southeast  Level Estimated
Fri 09:43:00 PM -10.3234 -55.4166 128° Southeast  Level Estimated
Fri 09:44:00 PM -10.3893 -55.3306 128° Southeast  Level Estimated
Fri 09:45:00 PM -10.4553 -55.2446 128° Southeast  Level Estimated
Fri 09:46:00 PM -10.5212 -55.1585 128° Southeast  Level Estimated
Fri 09:47:00 PM -10.5871 -55.0724 128° Southeast  Level Estimated
Fri 09:48:00 PM -10.6530 -54.9863 128° Southeast  Level Estimated
Fri 09:49:00 PM -10.7189 -54.9001 128° Southeast  Level Estimated
Fri 09:50:00 PM -10.7847 -54.8139 128° Southeast  Level Estimated
Fri 09:51:00 PM -10.8505 -54.7277 128° Southeast  Level Estimated
Fri 09:52:00 PM -10.9163 -54.6414 128° Southeast  Level Estimated
Fri 09:53:00 PM -10.9820 -54.5551 128° Southeast  Level Estimated
Fri 09:54:00 PM -11.0478 -54.4687 128° Southeast  Level Estimated
Fri 09:55:00 PM -11.1135 -54.3823 128° Southeast  Level Estimated
Fri 09:56:00 PM -11.1791 -54.2959 128° Southeast  Level Estimated
Fri 09:57:00 PM -11.2448 -54.2094 128° Southeast  Level Estimated
Fri 09:58:00 PM -11.3104 -54.1229 128° Southeast  Level Estimated
Fri 09:59:00 PM -11.3760 -54.0364 128° Southeast  Level Estimated
Fri 10:00:00 PM -11.4416 -53.9498 128° Southeast  Level Estimated
Fri 10:01:00 PM -11.5072 -53.8631 128° Southeast  Level Estimated
Fri 10:02:00 PM -11.5727 -53.7765 128° Southeast  Level Estimated
Fri 10:03:00 PM -11.6382 -53.6898 128° Southeast  Level Estimated
Fri 10:04:00 PM -11.7037 -53.6030 128° Southeast  Level Estimated
Fri 10:05:00 PM -11.7692 -53.5162 128° Southeast  Level Estimated
Fri 10:06:00 PM -11.8346 -53.4294 128° Southeast  Level Estimated
Fri 10:06:39 PM -14.8590 -49.4400 128° Southeast 471 542 35,200  Level FlightAware ADS-B
Fri 10:07:00 PM -11.9000 -53.3425 128° Southeast  Level Estimated
Fri 10:07:29 PM -14.9210 -49.3550 127° Southeast 469 540 34,300  Level FlightAware ADS-B
Fri 10:08:26 PM -14.9950 -49.2510 126° Southeast 456 525 31,600 -2,229 Descending FlightAware ADS-B
Fri 10:09:14 PM -15.0560 -49.1670 127° Southeast 441 507 30,400 -1,773 Descending FlightAware ADS-B
Fri 10:09:54 PM -15.1040 -49.1000 127° Southeast 435 501 29,000 -2,240 Descending FlightAware ADS-B
Fri 10:10:29 PM -15.1440 -49.0440 127° Southeast 438 504 27,600 -2,485 Descending FlightAware ADS-B
Fri 10:11:33 PM -15.2210 -48.9370 127° Southeast 436 502 24,900 -2,629 Descending FlightAware ADS-B
Fri 10:12:14 PM -15.2740 -48.8620 126° Southeast 433 498 23,000 -2,581 Descending FlightAware ADS-B
Fri 10:12:59 PM -15.3250 -48.7890 126° Southeast 427 491 21,200 -2,541 Descending FlightAware ADS-B
Fri 10:13:39 PM -15.3730 -48.7210 126° Southeast 417 480 19,400 -2,612 Descending FlightAware ADS-B
Fri 10:14:24 PM -15.4240 -48.6500 127° Southeast 406 467 17,500 -2,612 Descending FlightAware ADS-B
Fri 10:15:04 PM -15.4680 -48.5880 126° Southeast 400 460 15,700 -1,851 Descending FlightAware ADS-B
Fri 10:15:58 PM -15.5220 -48.5110 126° Southeast 395 455 14,600 -2,526 Descending FlightAware ADS-B
Fri 10:16:39 PM -15.5690 -48.4450 126° Southeast 379 436 11,700 -3,000 Descending FlightAware ADS-B
Fri 10:17:24 PM -15.6150 -48.3800 126° Southeast 356 410 10,300 -1,457 Descending FlightAware ADS-B
Fri 10:17:49 PM -15.6390 -48.3460 126° Southeast 332 382 10,000 -439 Descending FlightAware ADS-B
Fri 10:18:05 PM -15.6520 -48.3280 127° Southeast 314 361 10,000 -150 Level FlightAware ADS-B
Fri 10:18:29 PM -15.6720 -48.2990 126° Southeast 288 331 9,900 -1,000 Descending FlightAware ADS-B
Fri 10:18:59 PM -15.6960 -48.2650 126° Southeast 288 331 9,100 -1,745 Descending FlightAware ADS-B
Fri 10:19:24 PM -15.7150 -48.2380 126° Southeast 290 334 8,300 -1,636 Descending FlightAware ADS-B
Fri 10:19:54 PM -15.7390 -48.2040 126° Southeast 287 330 7,600 -1,091 Descending FlightAware ADS-B
Fri 10:20:19 PM -15.7580 -48.1770 126° Southeast 275 316 7,300 -600 Descending FlightAware ADS-B
Fri 10:20:54 PM -15.7850 -48.1430 130° Southeast 245 282 7,000 -720 Descending FlightAware ADS-B
Fri 10:21:09 PM -15.8000 -48.1350 153° Southeast 241 277 6,700 -1,400 Descending FlightAware ADS-B
Fri 10:21:24 PM -15.8160 -48.1290 160° South 240 276 6,300 -1,543 Descending FlightAware ADS-B
Fri 10:21:44 PM -15.8370 -48.1220 162° South 237 273 5,800 -1,320 Descending FlightAware ADS-B
Fri 10:22:14 PM -15.8660 -48.1080 155° Southeast 228 262 5,200 -933 Descending FlightAware ADS-B
Fri 10:22:29 PM -15.8740 -48.0960 125° Southeast 203 234 5,100 -133 Descending FlightAware ADS-B
Fri 10:22:59 PM -15.8730 -48.0700 88° East 169 194 5,100  Level FlightAware ADS-B
Fri 10:23:24 PM -15.8710 -48.0500 84° East 160 184 5,100  Level FlightAware ADS-B
Fri 10:23:39 PM -15.8710 -48.0390 90° East 159 183 5,100 -267 Level FlightAware ADS-B
Fri 10:24:09 PM -15.8690 -48.0160 85° East 157 181 4,900 -600 Descending FlightAware ADS-B
Fri 10:24:39 PM -15.8680 -47.9950 87° East 147 169 4,500 -764 Descending FlightAware ADS-B
Fri 10:25:04 PM -15.8670 -47.9770 87° East 151 174 4,200 -643 Descending FlightAware ADS-B
Fri 10:25:35 PM -15.8660 -47.9580 87° East 156 180 3,900 -842 Descending FlightAware ADS-B
Fri 10:26:01 PM -15.8640 -47.9350 85° East 158 182 3,400 -330 Descending FlightAware ADS-B
Fri 10:26:31 PM -15.8630 -47.9130 87° East 120 138 -72 Descending FlightAware ADS-B
Fri 10:27:24 PM -15.8610 -47.8920 84° East 146 168 3,300 3,736 Climbing FlightAware ADS-B
Fri 10:27:46 PM -15.8620 -47.9010 263° West 24 28 -9,000 Descending FlightAware ADS-B
Fri 10:28:34 PM -15.8620 -47.8970 90° East 15 17  Level FlightAware ADS-B
Fri 10:31:00 PM -15.8626 -47.9127 268° West  Level Estimated
Fri 10:32:00 PM -15.8626 -47.9127 128° Southeast  Level Estimated
Fri 10:33:00 PM -15.8626 -47.9127 128° Southeast  Level Estimated
Fri 10:34:00 PM -15.8626 -47.9127 128° Southeast  Level Estimated
Fri 10:35:00 PM -15.8626 -47.9127 128° Southeast  Level Estimated
Fri 10:36:00 PM -15.8626 -47.9127 128° Southeast  Level Estimated
Fri 10:37:00 PM -15.8626 -47.9127 128° Southeast  Level Estimated
Fri 10:38:00 PM -15.8626 -47.9127 128° Southeast  Level Estimated
Fri 10:39:00 PM -15.8626 -47.9127 128° Southeast  Level Estimated
Fri 10:40:00 PM -15.8626 -47.9127 128° Southeast  Level Estimated
Fri 10:41:00 PM -15.8626 -47.9127 128° Southeast  Level Estimated
Fri 10:42:00 PM -15.8626 -47.9127 128° Southeast  Level Estimated
Fri 10:43:00 PM -15.8626 -47.9127 128° Southeast  Level Estimated
Fri 10:44:00 PM -15.8626 -47.9127 128° Southeast  Level Estimated

Login

Don't have an account? Register now (free) for customized features, flight alerts, and more!